sensor_id;sensor_type;location;lat;lon;timestamp;temperature;humidity
59148;DHT22;44930;52.878;6.168;2023-05-10T00:00:12;13.00;99.90
59148;DHT22;44930;52.878;6.168;2023-05-10T00:02:38;13.00;99.90
59148;DHT22;44930;52.878;6.168;2023-05-10T00:05:04;13.10;99.90
59148;DHT22;44930;52.878;6.168;2023-05-10T00:07:30;13.40;99.90
59148;DHT22;44930;52.878;6.168;2023-05-10T00:09:56;13.10;99.90
59148;DHT22;44930;52.878;6.168;2023-05-10T00:12:21;13.30;99.90
59148;DHT22;44930;52.878;6.168;2023-05-10T00:14:47;12.80;99.90
59148;DHT22;44930;52.878;6.168;2023-05-10T00:17:13;13.00;99.90
59148;DHT22;44930;52.878;6.168;2023-05-10T00:19:38;13.00;99.90
59148;DHT22;44930;52.878;6.168;2023-05-10T00:22:04;12.70;99.90
59148;DHT22;44930;52.878;6.168;2023-05-10T00:24:29;12.80;99.90
59148;DHT22;44930;52.878;6.168;2023-05-10T00:26:55;13.00;99.90
59148;DHT22;44930;52.878;6.168;2023-05-10T00:29:20;13.30;99.90
59148;DHT22;44930;52.878;6.168;2023-05-10T00:31:46;12.50;99.90
59148;DHT22;44930;52.878;6.168;2023-05-10T00:34:11;13.10;99.90
59148;DHT22;44930;52.878;6.168;2023-05-10T00:36:37;13.00;99.90
59148;DHT22;44930;52.878;6.168;2023-05-10T00:39:03;13.00;99.90
59148;DHT22;44930;52.878;6.168;2023-05-10T00:41:29;13.20;99.90
59148;DHT22;44930;52.878;6.168;2023-05-10T00:43:57;13.00;99.90
59148;DHT22;44930;52.878;6.168;2023-05-10T00:46:23;12.80;99.90
59148;DHT22;44930;52.878;6.168;2023-05-10T00:48:49;12.90;99.90
59148;DHT22;44930;52.878;6.168;2023-05-10T00:51:14;13.00;99.90
59148;DHT22;44930;52.878;6.168;2023-05-10T00:53:40;12.90;99.90
59148;DHT22;44930;52.878;6.168;2023-05-10T00:56:06;12.90;99.90
59148;DHT22;44930;52.878;6.168;2023-05-10T00:58:32;12.60;99.90
59148;DHT22;44930;52.878;6.168;2023-05-10T01:00:58;12.90;99.90
59148;DHT22;44930;52.878;6.168;2023-05-10T01:03:26;13.10;99.90
59148;DHT22;44930;52.878;6.168;2023-05-10T01:05:51;13.20;99.90
59148;DHT22;44930;52.878;6.168;2023-05-10T01:08:17;12.70;99.90
59148;DHT22;44930;52.878;6.168;2023-05-10T01:10:43;12.80;99.90
59148;DHT22;44930;52.878;6.168;2023-05-10T01:13:09;12.90;99.90
59148;DHT22;44930;52.878;6.168;2023-05-10T01:15:36;12.90;99.90
59148;DHT22;44930;52.878;6.168;2023-05-10T01:18:02;12.70;99.90
59148;DHT22;44930;52.878;6.168;2023-05-10T01:20:35;12.80;99.90
59148;DHT22;44930;52.878;6.168;2023-05-10T01:29:29;12.80;99.90
59148;DHT22;44930;52.878;6.168;2023-05-10T01:32:21;12.80;99.90
59148;DHT22;44930;52.878;6.168;2023-05-10T01:35:00;12.60;99.90
59148;DHT22;44930;52.878;6.168;2023-05-10T01:37:33;12.70;99.90
59148;DHT22;44930;52.878;6.168;2023-05-10T01:40:19;12.50;99.90
59148;DHT22;44930;52.878;6.168;2023-05-10T01:42:51;12.70;99.90
59148;DHT22;44930;52.878;6.168;2023-05-10T01:45:30;12.60;99.90
59148;DHT22;44930;52.878;6.168;2023-05-10T01:48:10;12.30;99.90
59148;DHT22;44930;52.878;6.168;2023-05-10T01:50:38;12.70;99.90
59148;DHT22;44930;52.878;6.168;2023-05-10T01:53:07;12.70;99.90
59148;DHT22;44930;52.878;6.168;2023-05-10T01:55:35;12.60;99.90
59148;DHT22;44930;52.878;6.168;2023-05-10T01:58:05;12.70;99.90
59148;DHT22;44930;52.878;6.168;2023-05-10T02:00:32;12.50;99.90
59148;DHT22;44930;52.878;6.168;2023-05-10T02:03:00;12.60;99.90
59148;DHT22;44930;52.878;6.168;2023-05-10T02:05:28;12.60;99.90
59148;DHT22;44930;52.878;6.168;2023-05-10T02:07:54;12.70;99.90
59148;DHT22;44930;52.878;6.168;2023-05-10T02:10:21;12.60;99.90
59148;DHT22;44930;52.878;6.168;2023-05-10T02:12:48;12.70;99.90
59148;DHT22;44930;52.878;6.168;2023-05-10T02:15:18;12.60;99.90
59148;DHT22;44930;52.878;6.168;2023-05-10T02:17:46;12.40;99.90
59148;DHT22;44930;52.878;6.168;2023-05-10T02:20:13;12.80;99.90
59148;DHT22;44930;52.878;6.168;2023-05-10T02:22:40;12.70;99.90
59148;DHT22;44930;52.878;6.168;2023-05-10T02:25:08;12.60;99.90
59148;DHT22;44930;52.878;6.168;2023-05-10T02:27:36;12.30;99.90
59148;DHT22;44930;52.878;6.168;2023-05-10T02:30:03;12.60;99.90
59148;DHT22;44930;52.878;6.168;2023-05-10T02:32:30;12.60;99.90
59148;DHT22;44930;52.878;6.168;2023-05-10T02:34:57;12.60;99.90
59148;DHT22;44930;52.878;6.168;2023-05-10T02:37:25;12.40;99.90
59148;DHT22;44930;52.878;6.168;2023-05-10T02:39:54;12.80;99.90
59148;DHT22;44930;52.878;6.168;2023-05-10T02:42:24;12.60;99.90
59148;DHT22;44930;52.878;6.168;2023-05-10T02:44:53;12.60;99.90
59148;DHT22;44930;52.878;6.168;2023-05-10T02:47:19;12.60;99.90
59148;DHT22;44930;52.878;6.168;2023-05-10T02:49:45;12.80;99.90
59148;DHT22;44930;52.878;6.168;2023-05-10T02:52:14;12.60;99.90
59148;DHT22;44930;52.878;6.168;2023-05-10T02:54:45;12.40;99.90
59148;DHT22;44930;52.878;6.168;2023-05-10T02:57:15;12.20;99.90
59148;DHT22;44930;52.878;6.168;2023-05-10T02:59:41;12.00;99.90
59148;DHT22;44930;52.878;6.168;2023-05-10T03:02:08;12.50;99.90
59148;DHT22;44930;52.878;6.168;2023-05-10T03:04:34;12.50;99.90
59148;DHT22;44930;52.878;6.168;2023-05-10T03:07:00;12.40;99.90
59148;DHT22;44930;52.878;6.168;2023-05-10T03:09:26;12.50;99.90
59148;DHT22;44930;52.878;6.168;2023-05-10T03:12:10;12.50;99.90
59148;DHT22;44930;52.878;6.168;2023-05-10T03:20:07;12.40;99.90
59148;DHT22;44930;52.878;6.168;2023-05-10T03:22:37;12.50;99.90
59148;DHT22;44930;52.878;6.168;2023-05-10T03:25:06;12.40;99.90
59148;DHT22;44930;52.878;6.168;2023-05-10T03:27:35;12.50;99.90
59148;DHT22;44930;52.878;6.168;2023-05-10T03:30:02;12.80;99.90
59148;DHT22;44930;52.878;6.168;2023-05-10T03:32:29;12.40;99.90
59148;DHT22;44930;52.878;6.168;2023-05-10T03:34:57;12.40;99.90
59148;DHT22;44930;52.878;6.168;2023-05-10T03:37:22;12.20;99.90
59148;DHT22;44930;52.878;6.168;2023-05-10T03:39:48;12.40;99.90
59148;DHT22;44930;52.878;6.168;2023-05-10T03:42:13;12.50;99.90
59148;DHT22;44930;52.878;6.168;2023-05-10T03:44:40;12.40;99.90
59148;DHT22;44930;52.878;6.168;2023-05-10T03:47:05;12.60;99.90
59148;DHT22;44930;52.878;6.168;2023-05-10T03:49:31;12.50;99.90
59148;DHT22;44930;52.878;6.168;2023-05-10T03:51:57;12.20;99.90
59148;DHT22;44930;52.878;6.168;2023-05-10T03:54:23;12.10;99.90
59148;DHT22;44930;52.878;6.168;2023-05-10T03:56:48;12.30;99.90
59148;DHT22;44930;52.878;6.168;2023-05-10T03:59:14;12.10;99.90
59148;DHT22;44930;52.878;6.168;2023-05-10T04:01:39;12.50;99.90
59148;DHT22;44930;52.878;6.168;2023-05-10T04:04:05;12.50;99.90
59148;DHT22;44930;52.878;6.168;2023-05-10T04:06:30;12.50;99.90
59148;DHT22;44930;52.878;6.168;2023-05-10T04:08:57;12.50;99.90
59148;DHT22;44930;52.878;6.168;2023-05-10T04:11:25;12.50;99.90
59148;DHT22;44930;52.878;6.168;2023-05-10T04:13:50;12.60;99.90
59148;DHT22;44930;52.878;6.168;2023-05-10T04:16:16;12.40;99.90
59148;DHT22;44930;52.878;6.168;2023-05-10T04:18:41;12.30;99.90
59148;DHT22;44930;52.878;6.168;2023-05-10T04:21:14;12.50;99.90
59148;DHT22;44930;52.878;6.168;2023-05-10T04:23:39;12.60;99.90
59148;DHT22;44930;52.878;6.168;2023-05-10T04:26:05;12.40;99.90
59148;DHT22;44930;52.878;6.168;2023-05-10T04:28:31;12.60;99.90
59148;DHT22;44930;52.878;6.168;2023-05-10T04:31:04;13.00;99.90
59148;DHT22;44930;52.878;6.168;2023-05-10T04:33:30;12.40;99.90
59148;DHT22;44930;52.878;6.168;2023-05-10T04:35:56;12.70;99.90
59148;DHT22;44930;52.878;6.168;2023-05-10T04:38:22;12.50;99.90
59148;DHT22;44930;52.878;6.168;2023-05-10T04:40:47;12.60;99.90
59148;DHT22;44930;52.878;6.168;2023-05-10T04:43:13;12.80;99.90
59148;DHT22;44930;52.878;6.168;2023-05-10T04:45:38;12.60;99.90
59148;DHT22;44930;52.878;6.168;2023-05-10T04:48:04;12.80;99.90
59148;DHT22;44930;52.878;6.168;2023-05-10T04:50:30;12.60;99.90
59148;DHT22;44930;52.878;6.168;2023-05-10T04:52:55;12.30;99.90
59148;DHT22;44930;52.878;6.168;2023-05-10T04:55:21;12.60;99.90
59148;DHT22;44930;52.878;6.168;2023-05-10T04:57:46;12.50;99.90
59148;DHT22;44930;52.878;6.168;2023-05-10T05:00:12;12.80;99.90
59148;DHT22;44930;52.878;6.168;2023-05-10T05:02:38;12.50;99.90
59148;DHT22;44930;52.878;6.168;2023-05-10T05:05:04;12.50;99.90
59148;DHT22;44930;52.878;6.168;2023-05-10T05:07:29;12.70;99.90
59148;DHT22;44930;52.878;6.168;2023-05-10T05:09:56;12.60;99.90
59148;DHT22;44930;52.878;6.168;2023-05-10T05:12:21;12.50;99.90
59148;DHT22;44930;52.878;6.168;2023-05-10T05:14:47;12.60;99.90
59148;DHT22;44930;52.878;6.168;2023-05-10T05:17:12;12.60;99.90
59148;DHT22;44930;52.878;6.168;2023-05-10T05:19:38;12.60;99.90
59148;DHT22;44930;52.878;6.168;2023-05-10T05:22:04;12.90;99.90
59148;DHT22;44930;52.878;6.168;2023-05-10T05:24:35;12.20;99.90
59148;DHT22;44930;52.878;6.168;2023-05-10T05:27:01;12.60;99.90
59148;DHT22;44930;52.878;6.168;2023-05-10T05:29:27;12.50;99.90
59148;DHT22;44930;52.878;6.168;2023-05-10T05:31:52;12.20;99.90
59148;DHT22;44930;52.878;6.168;2023-05-10T05:36:45;12.30;99.90
59148;DHT22;44930;52.878;6.168;2023-05-10T05:39:11;12.50;99.90
59148;DHT22;44930;52.878;6.168;2023-05-10T05:41:36;12.70;99.90
59148;DHT22;44930;52.878;6.168;2023-05-10T05:44:02;12.60;99.90
59148;DHT22;44930;52.878;6.168;2023-05-10T05:46:27;12.40;99.90
59148;DHT22;44930;52.878;6.168;2023-05-10T05:48:53;12.60;99.90
59148;DHT22;44930;52.878;6.168;2023-05-10T05:51:19;12.80;99.90
59148;DHT22;44930;52.878;6.168;2023-05-10T05:53:44;12.60;99.90
59148;DHT22;44930;52.878;6.168;2023-05-10T05:56:10;12.70;99.90
59148;DHT22;44930;52.878;6.168;2023-05-10T05:58:36;12.70;99.90
59148;DHT22;44930;52.878;6.168;2023-05-10T06:01:01;12.70;99.90
59148;DHT22;44930;52.878;6.168;2023-05-10T06:03:27;12.60;99.90
59148;DHT22;44930;52.878;6.168;2023-05-10T06:05:52;12.50;99.90
59148;DHT22;44930;52.878;6.168;2023-05-10T06:08:18;12.60;99.90
59148;DHT22;44930;52.878;6.168;2023-05-10T06:10:43;12.40;99.90
59148;DHT22;44930;52.878;6.168;2023-05-10T06:13:09;12.70;99.90
59148;DHT22;44930;52.878;6.168;2023-05-10T06:15:35;12.40;99.90
59148;DHT22;44930;52.878;6.168;2023-05-10T06:18:01;12.80;99.90
59148;DHT22;44930;52.878;6.168;2023-05-10T06:20:26;12.80;99.90
59148;DHT22;44930;52.878;6.168;2023-05-10T06:25:18;13.00;99.90
59148;DHT22;44930;52.878;6.168;2023-05-10T06:27:44;12.90;99.90
59148;DHT22;44930;52.878;6.168;2023-05-10T06:30:10;12.80;99.90
59148;DHT22;44930;52.878;6.168;2023-05-10T06:32:36;13.10;99.90
59148;DHT22;44930;52.878;6.168;2023-05-10T06:35:02;12.80;99.90
59148;DHT22;44930;52.878;6.168;2023-05-10T06:37:27;13.20;99.90
59148;DHT22;44930;52.878;6.168;2023-05-10T06:39:53;13.00;99.90
59148;DHT22;44930;52.878;6.168;2023-05-10T06:42:19;13.00;99.90
59148;DHT22;44930;52.878;6.168;2023-05-10T06:44:44;13.10;99.90
59148;DHT22;44930;52.878;6.168;2023-05-10T06:47:10;13.10;99.90
59148;DHT22;44930;52.878;6.168;2023-05-10T06:49:35;13.10;99.90
59148;DHT22;44930;52.878;6.168;2023-05-10T06:52:01;13.10;99.90
59148;DHT22;44930;52.878;6.168;2023-05-10T06:54:26;13.00;99.90
59148;DHT22;44930;52.878;6.168;2023-05-10T06:56:52;13.10;99.90
59148;DHT22;44930;52.878;6.168;2023-05-10T06:59:18;13.10;99.90
59148;DHT22;44930;52.878;6.168;2023-05-10T07:01:44;13.10;99.90
59148;DHT22;44930;52.878;6.168;2023-05-10T07:04:10;13.20;99.90
59148;DHT22;44930;52.878;6.168;2023-05-10T07:06:35;13.20;99.90
59148;DHT22;44930;52.878;6.168;2023-05-10T07:09:01;12.70;99.90
59148;DHT22;44930;52.878;6.168;2023-05-10T07:11:27;13.40;99.90
59148;DHT22;44930;52.878;6.168;2023-05-10T07:13:52;13.10;99.90
59148;DHT22;44930;52.878;6.168;2023-05-10T07:16:18;13.10;99.90
59148;DHT22;44930;52.878;6.168;2023-05-10T07:18:44;13.70;99.90
59148;DHT22;44930;52.878;6.168;2023-05-10T07:21:09;13.50;99.90
59148;DHT22;44930;52.878;6.168;2023-05-10T07:23:35;13.30;99.90
59148;DHT22;44930;52.878;6.168;2023-05-10T07:26:00;13.20;99.90
59148;DHT22;44930;52.878;6.168;2023-05-10T07:28:27;13.30;99.90
59148;DHT22;44930;52.878;6.168;2023-05-10T07:30:53;13.40;99.90
59148;DHT22;44930;52.878;6.168;2023-05-10T07:33:18;13.70;99.90
59148;DHT22;44930;52.878;6.168;2023-05-10T07:35:44;13.30;99.90
59148;DHT22;44930;52.878;6.168;2023-05-10T07:38:10;13.40;99.90
59148;DHT22;44930;52.878;6.168;2023-05-10T07:40:36;13.20;99.90
59148;DHT22;44930;52.878;6.168;2023-05-10T07:43:02;13.40;99.90
59148;DHT22;44930;52.878;6.168;2023-05-10T07:45:28;13.00;99.90
59148;DHT22;44930;52.878;6.168;2023-05-10T07:47:54;13.20;99.90
59148;DHT22;44930;52.878;6.168;2023-05-10T07:50:19;13.40;99.90
59148;DHT22;44930;52.878;6.168;2023-05-10T07:52:46;13.50;99.90
59148;DHT22;44930;52.878;6.168;2023-05-10T07:55:12;13.20;99.90
59148;DHT22;44930;52.878;6.168;2023-05-10T07:57:38;13.60;99.90
59148;DHT22;44930;52.878;6.168;2023-05-10T08:00:04;13.60;99.90
59148;DHT22;44930;52.878;6.168;2023-05-10T08:02:30;13.50;99.90
59148;DHT22;44930;52.878;6.168;2023-05-10T08:04:55;13.60;99.90
59148;DHT22;44930;52.878;6.168;2023-05-10T08:07:21;13.50;99.90
59148;DHT22;44930;52.878;6.168;2023-05-10T08:09:47;13.40;99.90
59148;DHT22;44930;52.878;6.168;2023-05-10T08:12:12;13.80;99.90
59148;DHT22;44930;52.878;6.168;2023-05-10T08:14:38;13.40;99.90
59148;DHT22;44930;52.878;6.168;2023-05-10T08:17:04;13.70;99.90
59148;DHT22;44930;52.878;6.168;2023-05-10T08:19:29;14.00;99.90
59148;DHT22;44930;52.878;6.168;2023-05-10T08:21:55;13.50;99.90
59148;DHT22;44930;52.878;6.168;2023-05-10T08:24:21;13.40;99.90
59148;DHT22;44930;52.878;6.168;2023-05-10T08:26:47;13.60;99.90
59148;DHT22;44930;52.878;6.168;2023-05-10T08:29:13;13.70;99.90
59148;DHT22;44930;52.878;6.168;2023-05-10T08:31:39;13.00;99.90
59148;DHT22;44930;52.878;6.168;2023-05-10T08:34:05;13.40;99.90
59148;DHT22;44930;52.878;6.168;2023-05-10T08:36:30;13.30;99.90
59148;DHT22;44930;52.878;6.168;2023-05-10T08:38:57;13.40;99.90
59148;DHT22;44930;52.878;6.168;2023-05-10T08:41:24;13.50;99.90
59148;DHT22;44930;52.878;6.168;2023-05-10T08:43:52;13.40;99.90
59148;DHT22;44930;52.878;6.168;2023-05-10T08:46:20;13.40;99.90
59148;DHT22;44930;52.878;6.168;2023-05-10T08:48:47;13.40;99.90
59148;DHT22;44930;52.878;6.168;2023-05-10T08:51:17;13.50;99.90
59148;DHT22;44930;52.878;6.168;2023-05-10T08:53:43;13.60;99.90
59148;DHT22;44930;52.878;6.168;2023-05-10T08:56:09;13.50;99.90
59148;DHT22;44930;52.878;6.168;2023-05-10T08:58:36;13.80;99.90
59148;DHT22;44930;52.878;6.168;2023-05-10T09:01:03;14.00;99.90
59148;DHT22;44930;52.878;6.168;2023-05-10T09:03:29;13.60;99.90
59148;DHT22;44930;52.878;6.168;2023-05-10T09:05:54;14.10;99.90
59148;DHT22;44930;52.878;6.168;2023-05-10T09:08:22;14.10;99.90
59148;DHT22;44930;52.878;6.168;2023-05-10T09:10:50;14.20;99.90
59148;DHT22;44930;52.878;6.168;2023-05-10T09:13:17;14.20;99.90
59148;DHT22;44930;52.878;6.168;2023-05-10T09:15:44;13.80;99.90
59148;DHT22;44930;52.878;6.168;2023-05-10T09:18:10;14.20;99.90
59148;DHT22;44930;52.878;6.168;2023-05-10T09:20:36;13.80;99.90
59148;DHT22;44930;52.878;6.168;2023-05-10T09:23:01;13.90;99.90
59148;DHT22;44930;52.878;6.168;2023-05-10T09:25:27;14.20;99.90
59148;DHT22;44930;52.878;6.168;2023-05-10T09:27:53;14.20;99.90
59148;DHT22;44930;52.878;6.168;2023-05-10T09:30:26;14.60;99.90
59148;DHT22;44930;52.878;6.168;2023-05-10T09:32:53;14.20;99.90
59148;DHT22;44930;52.878;6.168;2023-05-10T09:35:22;13.90;99.90
59148;DHT22;44930;52.878;6.168;2023-05-10T09:37:50;14.30;99.90
59148;DHT22;44930;52.878;6.168;2023-05-10T09:40:23;14.10;99.90
59148;DHT22;44930;52.878;6.168;2023-05-10T09:45:22;14.20;99.90
59148;DHT22;44930;52.878;6.168;2023-05-10T09:47:47;15.00;99.90
59148;DHT22;44930;52.878;6.168;2023-05-10T09:50:13;14.60;99.90
59148;DHT22;44930;52.878;6.168;2023-05-10T09:52:58;14.30;99.90
59148;DHT22;44930;52.878;6.168;2023-05-10T09:55:42;14.40;99.90
59148;DHT22;44930;52.878;6.168;2023-05-10T09:58:10;14.40;99.90
59148;DHT22;44930;52.878;6.168;2023-05-10T10:00:46;14.70;99.90
59148;DHT22;44930;52.878;6.168;2023-05-10T10:03:19;14.30;99.90
59148;DHT22;44930;52.878;6.168;2023-05-10T10:05:45;14.40;99.90
59148;DHT22;44930;52.878;6.168;2023-05-10T10:08:12;14.50;99.90
59148;DHT22;44930;52.878;6.168;2023-05-10T10:10:38;14.10;99.90
59148;DHT22;44930;52.878;6.168;2023-05-10T10:13:07;14.40;99.90
59148;DHT22;44930;52.878;6.168;2023-05-10T10:15:34;14.80;99.90
59148;DHT22;44930;52.878;6.168;2023-05-10T10:18:00;14.20;99.90
59148;DHT22;44930;52.878;6.168;2023-05-10T10:20:26;14.60;99.90
59148;DHT22;44930;52.878;6.168;2023-05-10T10:22:52;14.30;99.90
59148;DHT22;44930;52.878;6.168;2023-05-10T10:25:19;14.70;99.90
59148;DHT22;44930;52.878;6.168;2023-05-10T10:30:42;14.60;99.90
59148;DHT22;44930;52.878;6.168;2023-05-10T10:35:53;14.80;99.90
59148;DHT22;44930;52.878;6.168;2023-05-10T10:38:20;15.00;99.90
59148;DHT22;44930;52.878;6.168;2023-05-10T10:40:46;14.60;99.90
59148;DHT22;44930;52.878;6.168;2023-05-10T10:46:09;14.50;99.90
59148;DHT22;44930;52.878;6.168;2023-05-10T10:48:35;14.50;99.90
59148;DHT22;44930;52.878;6.168;2023-05-10T10:51:01;15.10;99.90
59148;DHT22;44930;52.878;6.168;2023-05-10T10:53:27;14.60;99.90
59148;DHT22;44930;52.878;6.168;2023-05-10T10:56:05;14.90;99.90
59148;DHT22;44930;52.878;6.168;2023-05-10T10:58:34;15.10;99.90
59148;DHT22;44930;52.878;6.168;2023-05-10T11:01:17;14.70;99.90
59148;DHT22;44930;52.878;6.168;2023-05-10T11:06:34;14.80;99.90
59148;DHT22;44930;52.878;6.168;2023-05-10T11:09:11;14.70;99.90
59148;DHT22;44930;52.878;6.168;2023-05-10T11:11:52;14.50;99.90
59148;DHT22;44930;52.878;6.168;2023-05-10T11:14:21;14.50;99.90
59148;DHT22;44930;52.878;6.168;2023-05-10T11:16:47;14.50;99.90
59148;DHT22;44930;52.878;6.168;2023-05-10T11:19:14;14.80;99.90
59148;DHT22;44930;52.878;6.168;2023-05-10T11:24:31;14.60;99.90
59148;DHT22;44930;52.878;6.168;2023-05-10T11:26:57;14.50;99.90
59148;DHT22;44930;52.878;6.168;2023-05-10T11:29:22;14.80;99.90
59148;DHT22;44930;52.878;6.168;2023-05-10T11:31:49;14.60;99.90
59148;DHT22;44930;52.878;6.168;2023-05-10T11:34:28;14.60;99.90
59148;DHT22;44930;52.878;6.168;2023-05-10T11:36:56;14.70;99.90
59148;DHT22;44930;52.878;6.168;2023-05-10T11:39:26;14.60;99.90
59148;DHT22;44930;52.878;6.168;2023-05-10T11:41:52;15.00;99.90
59148;DHT22;44930;52.878;6.168;2023-05-10T11:44:18;14.80;99.90
59148;DHT22;44930;52.878;6.168;2023-05-10T11:46:43;14.70;99.90
59148;DHT22;44930;52.878;6.168;2023-05-10T11:49:10;14.40;99.90
59148;DHT22;44930;52.878;6.168;2023-05-10T11:51:36;14.80;99.90
59148;DHT22;44930;52.878;6.168;2023-05-10T11:54:06;14.60;99.90
59148;DHT22;44930;52.878;6.168;2023-05-10T11:56:32;14.90;99.90
59148;DHT22;44930;52.878;6.168;2023-05-10T11:58:58;14.90;99.90
59148;DHT22;44930;52.878;6.168;2023-05-10T12:01:26;14.90;99.90
59148;DHT22;44930;52.878;6.168;2023-05-10T12:03:53;14.60;99.90
59148;DHT22;44930;52.878;6.168;2023-05-10T12:06:19;14.70;99.90
59148;DHT22;44930;52.878;6.168;2023-05-10T12:08:48;15.00;99.90
59148;DHT22;44930;52.878;6.168;2023-05-10T12:11:14;14.40;99.90
59148;DHT22;44930;52.878;6.168;2023-05-10T12:13:42;14.80;99.90
59148;DHT22;44930;52.878;6.168;2023-05-10T12:16:22;14.80;99.90
59148;DHT22;44930;52.878;6.168;2023-05-10T12:18:57;14.90;99.90
59148;DHT22;44930;52.878;6.168;2023-05-10T12:21:23;15.10;99.90
59148;DHT22;44930;52.878;6.168;2023-05-10T12:23:53;14.80;99.90
59148;DHT22;44930;52.878;6.168;2023-05-10T12:26:22;15.10;99.90
59148;DHT22;44930;52.878;6.168;2023-05-10T12:28:47;15.20;99.90
59148;DHT22;44930;52.878;6.168;2023-05-10T12:31:13;15.20;99.90
59148;DHT22;44930;52.878;6.168;2023-05-10T12:33:41;14.80;99.90
59148;DHT22;44930;52.878;6.168;2023-05-10T12:36:08;15.00;99.90
59148;DHT22;44930;52.878;6.168;2023-05-10T12:38:39;15.00;99.90
59148;DHT22;44930;52.878;6.168;2023-05-10T12:41:12;14.90;99.90
59148;DHT22;44930;52.878;6.168;2023-05-10T12:43:38;14.80;99.90
59148;DHT22;44930;52.878;6.168;2023-05-10T12:48:31;14.90;99.90
59148;DHT22;44930;52.878;6.168;2023-05-10T12:50:57;15.10;99.90
59148;DHT22;44930;52.878;6.168;2023-05-10T12:53:22;15.20;99.90
59148;DHT22;44930;52.878;6.168;2023-05-10T12:55:48;15.50;99.90
59148;DHT22;44930;52.878;6.168;2023-05-10T12:58:13;15.40;99.90
59148;DHT22;44930;52.878;6.168;2023-05-10T13:00:39;14.70;99.90
59148;DHT22;44930;52.878;6.168;2023-05-10T13:03:05;14.90;99.90
59148;DHT22;44930;52.878;6.168;2023-05-10T13:05:32;14.90;99.90
59148;DHT22;44930;52.878;6.168;2023-05-10T13:07:58;14.80;99.90
59148;DHT22;44930;52.878;6.168;2023-05-10T13:10:23;15.00;99.90
59148;DHT22;44930;52.878;6.168;2023-05-10T13:12:50;15.10;99.90
59148;DHT22;44930;52.878;6.168;2023-05-10T13:15:15;14.80;99.90
59148;DHT22;44930;52.878;6.168;2023-05-10T13:17:41;15.20;99.90
59148;DHT22;44930;52.878;6.168;2023-05-10T13:20:08;15.00;99.90
59148;DHT22;44930;52.878;6.168;2023-05-10T13:22:35;15.00;99.90
59148;DHT22;44930;52.878;6.168;2023-05-10T13:25:00;15.00;99.90
59148;DHT22;44930;52.878;6.168;2023-05-10T13:27:26;15.20;99.90
59148;DHT22;44930;52.878;6.168;2023-05-10T13:29:52;15.30;99.90
59148;DHT22;44930;52.878;6.168;2023-05-10T13:32:18;15.10;99.90
59148;DHT22;44930;52.878;6.168;2023-05-10T13:34:44;15.00;99.90
59148;DHT22;44930;52.878;6.168;2023-05-10T13:37:09;15.60;99.90
59148;DHT22;44930;52.878;6.168;2023-05-10T13:39:35;15.50;99.90
59148;DHT22;44930;52.878;6.168;2023-05-10T13:42:03;16.80;99.90
59148;DHT22;44930;52.878;6.168;2023-05-10T13:44:28;16.00;99.90
59148;DHT22;44930;52.878;6.168;2023-05-10T13:46:54;15.60;99.90
59148;DHT22;44930;52.878;6.168;2023-05-10T13:49:20;15.60;99.90
59148;DHT22;44930;52.878;6.168;2023-05-10T13:51:47;15.70;99.90
59148;DHT22;44930;52.878;6.168;2023-05-10T13:54:13;15.90;99.90
59148;DHT22;44930;52.878;6.168;2023-05-10T13:56:38;15.70;99.90
59148;DHT22;44930;52.878;6.168;2023-05-10T13:59:04;15.80;99.90
59148;DHT22;44930;52.878;6.168;2023-05-10T14:01:29;16.00;99.90
59148;DHT22;44930;52.878;6.168;2023-05-10T14:03:55;15.60;99.90
59148;DHT22;44930;52.878;6.168;2023-05-10T14:06:21;16.30;99.90
59148;DHT22;44930;52.878;6.168;2023-05-10T14:08:47;15.90;99.90
59148;DHT22;44930;52.878;6.168;2023-05-10T14:11:12;16.10;99.90
59148;DHT22;44930;52.878;6.168;2023-05-10T14:13:38;16.10;99.90
59148;DHT22;44930;52.878;6.168;2023-05-10T14:16:04;15.80;99.90
59148;DHT22;44930;52.878;6.168;2023-05-10T14:18:29;15.60;99.90
59148;DHT22;44930;52.878;6.168;2023-05-10T14:20:55;16.00;99.90
59148;DHT22;44930;52.878;6.168;2023-05-10T14:23:22;15.10;99.90
59148;DHT22;44930;52.878;6.168;2023-05-10T14:25:50;15.00;99.90
59148;DHT22;44930;52.878;6.168;2023-05-10T14:28:16;15.40;99.90
59148;DHT22;44930;52.878;6.168;2023-05-10T14:30:43;15.20;99.90
59148;DHT22;44930;52.878;6.168;2023-05-10T14:33:10;15.20;99.90
59148;DHT22;44930;52.878;6.168;2023-05-10T14:35:35;15.00;99.90
59148;DHT22;44930;52.878;6.168;2023-05-10T14:38:02;15.10;99.90
59148;DHT22;44930;52.878;6.168;2023-05-10T14:40:29;14.90;99.90
59148;DHT22;44930;52.878;6.168;2023-05-10T14:42:55;15.30;99.90
59148;DHT22;44930;52.878;6.168;2023-05-10T14:45:21;15.00;99.90
59148;DHT22;44930;52.878;6.168;2023-05-10T14:47:47;15.10;99.90
59148;DHT22;44930;52.878;6.168;2023-05-10T14:50:13;15.30;99.90
59148;DHT22;44930;52.878;6.168;2023-05-10T14:52:39;15.40;99.90
59148;DHT22;44930;52.878;6.168;2023-05-10T14:55:05;15.60;99.90
59148;DHT22;44930;52.878;6.168;2023-05-10T14:57:30;15.10;99.90
59148;DHT22;44930;52.878;6.168;2023-05-10T14:59:56;15.50;99.90
59148;DHT22;44930;52.878;6.168;2023-05-10T15:02:22;15.50;99.90
59148;DHT22;44930;52.878;6.168;2023-05-10T15:04:47;15.90;99.90
59148;DHT22;44930;52.878;6.168;2023-05-10T15:07:13;15.10;99.90
59148;DHT22;44930;52.878;6.168;2023-05-10T15:09:41;15.40;99.90
59148;DHT22;44930;52.878;6.168;2023-05-10T15:12:07;15.40;99.90
59148;DHT22;44930;52.878;6.168;2023-05-10T15:14:32;15.50;99.90
59148;DHT22;44930;52.878;6.168;2023-05-10T15:16:59;15.40;99.90
59148;DHT22;44930;52.878;6.168;2023-05-10T15:19:24;15.10;99.90
59148;DHT22;44930;52.878;6.168;2023-05-10T15:21:50;15.20;99.90
59148;DHT22;44930;52.878;6.168;2023-05-10T15:24:15;15.60;99.90
59148;DHT22;44930;52.878;6.168;2023-05-10T15:26:41;15.40;99.90
59148;DHT22;44930;52.878;6.168;2023-05-10T15:29:07;15.40;99.90
59148;DHT22;44930;52.878;6.168;2023-05-10T15:31:33;15.70;99.90
59148;DHT22;44930;52.878;6.168;2023-05-10T15:34:01;15.60;99.90
59148;DHT22;44930;52.878;6.168;2023-05-10T15:36:26;15.60;99.90
59148;DHT22;44930;52.878;6.168;2023-05-10T15:38:53;15.80;99.90
59148;DHT22;44930;52.878;6.168;2023-05-10T15:41:19;16.00;99.90
59148;DHT22;44930;52.878;6.168;2023-05-10T15:43:44;15.40;99.90
59148;DHT22;44930;52.878;6.168;2023-05-10T15:46:10;15.20;99.90
59148;DHT22;44930;52.878;6.168;2023-05-10T15:48:36;15.70;99.90
59148;DHT22;44930;52.878;6.168;2023-05-10T15:51:01;15.60;99.90
59148;DHT22;44930;52.878;6.168;2023-05-10T15:53:27;15.20;99.90
59148;DHT22;44930;52.878;6.168;2023-05-10T15:55:52;15.30;99.90
59148;DHT22;44930;52.878;6.168;2023-05-10T15:58:18;15.40;99.90
59148;DHT22;44930;52.878;6.168;2023-05-10T16:00:43;15.30;99.90
59148;DHT22;44930;52.878;6.168;2023-05-10T16:03:09;15.40;99.90